sensor_id;sensor_type;location;lat;lon;timestamp;pressure;altitude;pressure_sealevel;temperature;humidity
9905;BME280;4991;43.566;27.820;2023-11-22T00:01:22;98256.56;;;9.81;100.00
9905;BME280;4991;43.566;27.820;2023-11-22T00:03:47;98201.84;;;9.52;100.00
9905;BME280;4991;43.566;27.820;2023-11-22T00:06:16;98246.00;;;9.80;100.00
9905;BME280;4991;43.566;27.820;2023-11-22T00:08:41;98229.50;;;9.76;100.00
9905;BME280;4991;43.566;27.820;2023-11-22T00:11:07;98244.78;;;9.94;100.00
9905;BME280;4991;43.566;27.820;2023-11-22T00:13:33;98235.31;;;9.92;100.00
9905;BME280;4991;43.566;27.820;2023-11-22T00:15:58;98259.34;;;9.98;100.00
9905;BME280;4991;43.566;27.820;2023-11-22T00:18:24;98201.38;;;9.59;100.00
9905;BME280;4991;43.566;27.820;2023-11-22T00:20:51;98233.34;;;9.84;100.00
9905;BME280;4991;43.566;27.820;2023-11-22T00:23:17;98209.28;;;9.69;100.00
9905;BME280;4991;43.566;27.820;2023-11-22T00:25:42;98199.47;;;9.59;100.00
9905;BME280;4991;43.566;27.820;2023-11-22T00:28:08;98217.03;;;9.84;100.00
9905;BME280;4991;43.566;27.820;2023-11-22T00:30:33;98218.66;;;9.85;100.00
9905;BME280;4991;43.566;27.820;2023-11-22T00:32:59;98204.38;;;9.79;100.00
9905;BME280;4991;43.566;27.820;2023-11-22T00:35:25;98178.88;;;9.67;100.00
9905;BME280;4991;43.566;27.820;2023-11-22T00:37:51;98240.97;;;10.04;100.00
9905;BME280;4991;43.566;27.820;2023-11-22T00:40:37;98236.56;;;10.08;100.00
9905;BME280;4991;43.566;27.820;2023-11-22T00:43:03;98177.09;;;9.62;100.00
9905;BME280;4991;43.566;27.820;2023-11-22T00:45:28;98198.94;;;9.79;100.00
9905;BME280;4991;43.566;27.820;2023-11-22T00:47:55;98186.91;;;9.72;100.00
9905;BME280;4991;43.566;27.820;2023-11-22T00:50:20;98202.91;;;9.73;100.00
9905;BME280;4991;43.566;27.820;2023-11-22T00:52:47;98188.16;;;9.66;100.00
9905;BME280;4991;43.566;27.820;2023-11-22T00:55:13;98185.94;;;9.68;100.00
9905;BME280;4991;43.566;27.820;2023-11-22T00:57:38;98234.25;;;10.01;100.00
9905;BME280;4991;43.566;27.820;2023-11-22T01:00:05;98208.56;;;9.85;100.00
9905;BME280;4991;43.566;27.820;2023-11-22T01:02:33;98191.44;;;9.76;100.00
9905;BME280;4991;43.566;27.820;2023-11-22T01:04:58;98197.19;;;9.83;100.00
9905;BME280;4991;43.566;27.820;2023-11-22T01:07:24;98195.78;;;9.86;100.00
9905;BME280;4991;43.566;27.820;2023-11-22T01:09:50;98171.22;;;9.69;100.00
9905;BME280;4991;43.566;27.820;2023-11-22T01:12:17;98157.75;;;9.64;100.00
9905;BME280;4991;43.566;27.820;2023-11-22T01:14:42;98189.03;;;9.83;100.00
9905;BME280;4991;43.566;27.820;2023-11-22T01:17:08;98216.50;;;10.04;100.00
9905;BME280;4991;43.566;27.820;2023-11-22T01:19:34;98172.56;;;9.80;100.00
9905;BME280;4991;43.566;27.820;2023-11-22T01:21:59;98210.63;;;10.10;100.00
9905;BME280;4991;43.566;27.820;2023-11-22T01:24:25;98191.50;;;10.02;100.00
9905;BME280;4991;43.566;27.820;2023-11-22T01:26:53;98197.44;;;10.04;100.00
9905;BME280;4991;43.566;27.820;2023-11-22T01:29:19;98162.63;;;9.75;100.00
9905;BME280;4991;43.566;27.820;2023-11-22T01:31:44;98152.69;;;9.71;100.00
9905;BME280;4991;43.566;27.820;2023-11-22T01:34:10;98173.19;;;9.77;100.00
9905;BME280;4991;43.566;27.820;2023-11-22T01:36:41;98159.13;;;9.83;100.00
9905;BME280;4991;43.566;27.820;2023-11-22T01:39:07;98185.41;;;9.88;100.00
9905;BME280;4991;43.566;27.820;2023-11-22T01:41:33;98185.44;;;9.96;100.00
9905;BME280;4991;43.566;27.820;2023-11-22T01:44:00;98187.69;;;10.03;100.00
9905;BME280;4991;43.566;27.820;2023-11-22T01:46:26;98140.69;;;9.72;100.00
9905;BME280;4991;43.566;27.820;2023-11-22T01:48:52;98192.63;;;10.01;100.00
9905;BME280;4991;43.566;27.820;2023-11-22T01:51:22;98177.41;;;9.91;100.00
9905;BME280;4991;43.566;27.820;2023-11-22T01:53:51;98174.38;;;9.93;100.00
9905;BME280;4991;43.566;27.820;2023-11-22T01:56:26;98162.28;;;9.77;100.00
9905;BME280;4991;43.566;27.820;2023-11-22T01:58:52;98166.34;;;9.88;100.00
9905;BME280;4991;43.566;27.820;2023-11-22T02:01:20;98174.47;;;9.79;100.00
9905;BME280;4991;43.566;27.820;2023-11-22T02:04:04;98181.53;;;9.89;100.00
9905;BME280;4991;43.566;27.820;2023-11-22T02:06:43;98142.94;;;9.70;100.00
9905;BME280;4991;43.566;27.820;2023-11-22T02:09:12;98171.31;;;9.86;100.00
9905;BME280;4991;43.566;27.820;2023-11-22T02:11:48;98170.50;;;9.85;100.00
9905;BME280;4991;43.566;27.820;2023-11-22T02:14:28;98170.63;;;9.80;100.00
9905;BME280;4991;43.566;27.820;2023-11-22T02:20:20;98147.09;;;9.76;100.00
9905;BME280;4991;43.566;27.820;2023-11-22T02:22:46;98124.19;;;9.60;100.00
9905;BME280;4991;43.566;27.820;2023-11-22T02:25:12;98158.31;;;9.74;100.00
9905;BME280;4991;43.566;27.820;2023-11-22T02:27:39;98152.63;;;9.62;100.00
9905;BME280;4991;43.566;27.820;2023-11-22T02:30:06;98150.06;;;9.57;100.00
9905;BME280;4991;43.566;27.820;2023-11-22T02:32:32;98152.41;;;9.50;100.00
9905;BME280;4991;43.566;27.820;2023-11-22T02:34:58;98183.59;;;9.75;100.00
9905;BME280;4991;43.566;27.820;2023-11-22T02:37:24;98136.25;;;9.45;100.00
9905;BME280;4991;43.566;27.820;2023-11-22T02:40:28;98168.81;;;9.67;100.00
9905;BME280;4991;43.566;27.820;2023-11-22T02:42:56;98141.53;;;9.42;100.00
9905;BME280;4991;43.566;27.820;2023-11-22T02:45:30;98168.53;;;9.38;100.00
9905;BME280;4991;43.566;27.820;2023-11-22T02:47:56;98156.34;;;9.36;100.00
9905;BME280;4991;43.566;27.820;2023-11-22T02:50:22;98134.69;;;9.22;100.00
9905;BME280;4991;43.566;27.820;2023-11-22T02:52:48;98198.66;;;9.59;100.00
9905;BME280;4991;43.566;27.820;2023-11-22T02:58:13;98169.94;;;9.36;100.00
9905;BME280;4991;43.566;27.820;2023-11-22T03:03:51;98178.38;;;9.34;100.00
9905;BME280;4991;43.566;27.820;2023-11-22T03:06:17;98151.72;;;9.14;100.00
9905;BME280;4991;43.566;27.820;2023-11-22T03:08:42;98157.09;;;9.05;100.00
9905;BME280;4991;43.566;27.820;2023-11-22T03:11:09;98150.44;;;8.89;100.00
9905;BME280;4991;43.566;27.820;2023-11-22T03:13:35;98164.84;;;8.90;100.00
9905;BME280;4991;43.566;27.820;2023-11-22T03:16:01;98200.91;;;8.90;100.00
9905;BME280;4991;43.566;27.820;2023-11-22T03:18:28;98182.41;;;8.70;100.00
9905;BME280;4991;43.566;27.820;2023-11-22T03:20:54;98171.78;;;8.60;100.00
9905;BME280;4991;43.566;27.820;2023-11-22T03:23:20;98192.94;;;8.72;100.00
9905;BME280;4991;43.566;27.820;2023-11-22T03:25:46;98169.66;;;8.57;100.00
9905;BME280;4991;43.566;27.820;2023-11-22T03:28:12;98216.44;;;8.90;100.00
9905;BME280;4991;43.566;27.820;2023-11-22T03:30:37;98213.09;;;8.93;100.00
9905;BME280;4991;43.566;27.820;2023-11-22T03:33:04;98204.63;;;8.94;100.00
9905;BME280;4991;43.566;27.820;2023-11-22T03:35:30;98225.00;;;9.05;100.00
9905;BME280;4991;43.566;27.820;2023-11-22T03:37:56;98219.03;;;8.95;100.00
9905;BME280;4991;43.566;27.820;2023-11-22T03:40:22;98216.97;;;8.78;100.00
9905;BME280;4991;43.566;27.820;2023-11-22T03:42:47;98206.94;;;8.65;100.00
9905;BME280;4991;43.566;27.820;2023-11-22T03:45:13;98198.31;;;8.63;100.00
9905;BME280;4991;43.566;27.820;2023-11-22T03:47:40;98192.09;;;8.49;100.00
9905;BME280;4991;43.566;27.820;2023-11-22T03:50:06;98204.50;;;8.64;100.00
9905;BME280;4991;43.566;27.820;2023-11-22T03:52:32;98206.94;;;8.65;100.00
9905;BME280;4991;43.566;27.820;2023-11-22T03:54:58;98215.75;;;8.71;100.00
9905;BME280;4991;43.566;27.820;2023-11-22T03:57:24;98228.19;;;8.85;100.00
9905;BME280;4991;43.566;27.820;2023-11-22T03:59:49;98201.75;;;8.55;100.00
9905;BME280;4991;43.566;27.820;2023-11-22T04:02:15;98197.72;;;8.53;100.00
9905;BME280;4991;43.566;27.820;2023-11-22T04:04:41;98173.72;;;8.46;100.00
9905;BME280;4991;43.566;27.820;2023-11-22T04:07:07;98214.59;;;8.63;100.00
9905;BME280;4991;43.566;27.820;2023-11-22T04:09:33;98215.78;;;8.57;100.00
9905;BME280;4991;43.566;27.820;2023-11-22T04:11:59;98217.41;;;8.58;100.00
9905;BME280;4991;43.566;27.820;2023-11-22T04:14:25;98215.94;;;8.39;100.00
9905;BME280;4991;43.566;27.820;2023-11-22T04:16:53;98229.66;;;8.56;100.00
9905;BME280;4991;43.566;27.820;2023-11-22T04:19:18;98195.31;;;8.38;100.00
9905;BME280;4991;43.566;27.820;2023-11-22T04:21:44;98229.56;;;8.47;100.00
9905;BME280;4991;43.566;27.820;2023-11-22T04:24:10;98210.63;;;8.34;100.00
9905;BME280;4991;43.566;27.820;2023-11-22T04:26:38;98249.16;;;8.44;100.00
9905;BME280;4991;43.566;27.820;2023-11-22T04:29:23;98238.53;;;8.21;100.00
9905;BME280;4991;43.566;27.820;2023-11-22T04:31:49;98215.41;;;8.10;100.00
9905;BME280;4991;43.566;27.820;2023-11-22T04:34:14;98241.97;;;8.26;100.00
9905;BME280;4991;43.566;27.820;2023-11-22T04:36:40;98236.91;;;8.20;100.00
9905;BME280;4991;43.566;27.820;2023-11-22T04:39:06;98247.53;;;8.16;100.00
9905;BME280;4991;43.566;27.820;2023-11-22T04:41:33;98246.34;;;8.09;100.00
9905;BME280;4991;43.566;27.820;2023-11-22T04:43:59;98256.59;;;8.12;100.00
9905;BME280;4991;43.566;27.820;2023-11-22T04:46:25;98224.94;;;7.80;100.00
9905;BME280;4991;43.566;27.820;2023-11-22T04:48:51;98242.44;;;7.88;100.00
9905;BME280;4991;43.566;27.820;2023-11-22T04:51:17;98262.13;;;8.07;100.00
9905;BME280;4991;43.566;27.820;2023-11-22T04:53:43;98241.72;;;7.96;100.00
9905;BME280;4991;43.566;27.820;2023-11-22T04:56:09;98238.91;;;7.87;100.00
9905;BME280;4991;43.566;27.820;2023-11-22T04:58:35;98242.00;;;7.80;100.00
9905;BME280;4991;43.566;27.820;2023-11-22T05:01:01;98274.25;;;8.09;100.00
9905;BME280;4991;43.566;27.820;2023-11-22T05:03:27;98265.72;;;8.02;100.00
9905;BME280;4991;43.566;27.820;2023-11-22T05:05:53;98255.16;;;7.87;100.00
9905;BME280;4991;43.566;27.820;2023-11-22T05:08:18;98264.59;;;7.89;100.00
9905;BME280;4991;43.566;27.820;2023-11-22T05:10:44;98299.16;;;8.11;100.00
9905;BME280;4991;43.566;27.820;2023-11-22T05:13:10;98271.06;;;8.07;100.00
9905;BME280;4991;43.566;27.820;2023-11-22T05:15:37;98289.22;;;8.07;100.00
9905;BME280;4991;43.566;27.820;2023-11-22T05:18:03;98259.16;;;7.76;100.00
9905;BME280;4991;43.566;27.820;2023-11-22T05:20:28;98247.63;;;7.70;100.00
9905;BME280;4991;43.566;27.820;2023-11-22T05:22:54;98271.56;;;7.96;100.00
9905;BME280;4991;43.566;27.820;2023-11-22T05:25:19;98267.72;;;7.97;100.00
9905;BME280;4991;43.566;27.820;2023-11-22T05:27:45;98267.59;;;7.88;100.00
9905;BME280;4991;43.566;27.820;2023-11-22T05:30:12;98199.38;;;7.40;100.00
9905;BME280;4991;43.566;27.820;2023-11-22T05:32:39;98246.38;;;7.63;100.00
9905;BME280;4991;43.566;27.820;2023-11-22T05:35:05;98254.41;;;7.68;100.00
9905;BME280;4991;43.566;27.820;2023-11-22T05:37:35;98301.59;;;7.99;100.00
9905;BME280;4991;43.566;27.820;2023-11-22T05:40:03;98301.94;;;7.93;100.00
9905;BME280;4991;43.566;27.820;2023-11-22T05:42:28;98292.19;;;7.78;100.00
9905;BME280;4991;43.566;27.820;2023-11-22T05:44:56;98291.59;;;7.81;100.00
9905;BME280;4991;43.566;27.820;2023-11-22T05:47:24;98315.72;;;7.96;100.00
9905;BME280;4991;43.566;27.820;2023-11-22T05:49:50;98293.59;;;7.75;100.00
9905;BME280;4991;43.566;27.820;2023-11-22T05:52:17;98328.69;;;7.99;100.00
9905;BME280;4991;43.566;27.820;2023-11-22T05:54:44;98359.22;;;8.05;100.00
9905;BME280;4991;43.566;27.820;2023-11-22T05:57:10;98345.13;;;7.89;100.00
9905;BME280;4991;43.566;27.820;2023-11-22T05:59:36;98329.53;;;7.81;100.00
9905;BME280;4991;43.566;27.820;2023-11-22T06:02:01;98334.59;;;8.01;100.00
9905;BME280;4991;43.566;27.820;2023-11-22T06:04:27;98365.19;;;8.20;100.00
9905;BME280;4991;43.566;27.820;2023-11-22T06:06:53;98365.44;;;8.51;100.00
9905;BME280;4991;43.566;27.820;2023-11-22T06:09:18;98367.66;;;8.62;100.00
9905;BME280;4991;43.566;27.820;2023-11-22T06:11:44;98351.38;;;8.62;100.00
9905;BME280;4991;43.566;27.820;2023-11-22T06:14:10;98377.34;;;8.82;100.00
9905;BME280;4991;43.566;27.820;2023-11-22T06:16:35;98360.34;;;8.76;100.00
9905;BME280;4991;43.566;27.820;2023-11-22T06:19:01;98374.31;;;8.97;100.00
9905;BME280;4991;43.566;27.820;2023-11-22T06:21:26;98383.22;;;9.11;100.00
9905;BME280;4991;43.566;27.820;2023-11-22T06:23:53;98383.75;;;9.13;100.00
9905;BME280;4991;43.566;27.820;2023-11-22T06:26:20;98359.72;;;9.06;100.00
9905;BME280;4991;43.566;27.820;2023-11-22T06:28:46;98327.16;;;8.79;100.00
9905;BME280;4991;43.566;27.820;2023-11-22T06:31:14;98347.38;;;8.87;100.00
9905;BME280;4991;43.566;27.820;2023-11-22T06:33:40;98402.75;;;8.99;100.00
9905;BME280;4991;43.566;27.820;2023-11-22T06:36:06;98317.50;;;8.73;100.00
9905;BME280;4991;43.566;27.820;2023-11-22T06:38:32;98419.19;;;9.44;100.00
9905;BME280;4991;43.566;27.820;2023-11-22T06:40:57;98376.00;;;9.20;100.00
9905;BME280;4991;43.566;27.820;2023-11-22T06:43:23;98410.84;;;9.40;100.00
9905;BME280;4991;43.566;27.820;2023-11-22T06:45:49;98386.00;;;9.47;100.00
9905;BME280;4991;43.566;27.820;2023-11-22T06:48:16;98371.06;;;9.58;100.00
9905;BME280;4991;43.566;27.820;2023-11-22T06:50:42;98415.38;;;10.02;100.00
9905;BME280;4991;43.566;27.820;2023-11-22T06:53:07;98367.41;;;9.84;100.00
9905;BME280;4991;43.566;27.820;2023-11-22T06:55:33;98428.84;;;10.21;100.00
9905;BME280;4991;43.566;27.820;2023-11-22T06:57:59;98373.78;;;9.80;100.00
9905;BME280;4991;43.566;27.820;2023-11-22T07:00:24;98415.56;;;10.06;100.00
9905;BME280;4991;43.566;27.820;2023-11-22T07:02:53;98381.31;;;9.83;100.00
9905;BME280;4991;43.566;27.820;2023-11-22T07:05:18;98440.47;;;10.13;100.00
9905;BME280;4991;43.566;27.820;2023-11-22T07:07:44;98408.91;;;10.12;100.00
9905;BME280;4991;43.566;27.820;2023-11-22T07:10:10;98431.00;;;10.32;100.00
9905;BME280;4991;43.566;27.820;2023-11-22T07:12:36;98463.03;;;10.35;100.00
9905;BME280;4991;43.566;27.820;2023-11-22T07:15:03;98424.72;;;10.32;100.00
9905;BME280;4991;43.566;27.820;2023-11-22T07:17:31;98417.97;;;10.07;100.00
9905;BME280;4991;43.566;27.820;2023-11-22T07:19:59;98430.81;;;10.29;100.00
9905;BME280;4991;43.566;27.820;2023-11-22T07:22:26;98418.94;;;10.56;100.00
9905;BME280;4991;43.566;27.820;2023-11-22T07:24:52;98415.69;;;10.45;100.00
9905;BME280;4991;43.566;27.820;2023-11-22T07:27:19;98427.63;;;10.58;100.00
9905;BME280;4991;43.566;27.820;2023-11-22T07:29:46;98434.91;;;10.49;100.00
9905;BME280;4991;43.566;27.820;2023-11-22T07:32:12;98411.56;;;10.25;100.00
9905;BME280;4991;43.566;27.820;2023-11-22T07:34:45;98441.44;;;10.39;100.00
9905;BME280;4991;43.566;27.820;2023-11-22T07:37:28;98482.78;;;10.50;100.00
9905;BME280;4991;43.566;27.820;2023-11-22T07:39:54;98488.16;;;10.63;100.00
9905;BME280;4991;43.566;27.820;2023-11-22T07:42:20;98476.81;;;10.61;100.00
9905;BME280;4991;43.566;27.820;2023-11-22T07:44:48;98421.44;;;10.43;100.00
9905;BME280;4991;43.566;27.820;2023-11-22T07:47:16;98460.69;;;10.73;100.00
9905;BME280;4991;43.566;27.820;2023-11-22T07:49:44;98463.28;;;10.78;100.00
9905;BME280;4991;43.566;27.820;2023-11-22T07:52:10;98470.94;;;10.76;100.00
9905;BME280;4991;43.566;27.820;2023-11-22T07:54:39;98434.13;;;10.79;100.00
9905;BME280;4991;43.566;27.820;2023-11-22T07:57:06;98447.59;;;10.84;100.00
9905;BME280;4991;43.566;27.820;2023-11-22T07:59:33;98469.56;;;10.57;100.00
9905;BME280;4991;43.566;27.820;2023-11-22T08:01:59;98437.34;;;10.50;100.00
9905;BME280;4991;43.566;27.820;2023-11-22T08:04:27;98486.06;;;10.82;100.00
9905;BME280;4991;43.566;27.820;2023-11-22T08:06:54;98482.59;;;10.99;100.00
9905;BME280;4991;43.566;27.820;2023-11-22T08:09:23;98452.19;;;10.75;100.00
9905;BME280;4991;43.566;27.820;2023-11-22T08:11:49;98492.97;;;10.88;100.00
9905;BME280;4991;43.566;27.820;2023-11-22T08:14:15;98500.91;;;10.76;100.00
9905;BME280;4991;43.566;27.820;2023-11-22T08:16:41;98477.78;;;10.43;100.00
9905;BME280;4991;43.566;27.820;2023-11-22T08:19:10;98493.41;;;10.51;100.00
9905;BME280;4991;43.566;27.820;2023-11-22T08:21:38;98495.72;;;10.66;100.00
9905;BME280;4991;43.566;27.820;2023-11-22T08:24:04;98465.81;;;10.44;100.00
9905;BME280;4991;43.566;27.820;2023-11-22T08:26:30;98484.88;;;10.44;100.00
9905;BME280;4991;43.566;27.820;2023-11-22T08:28:56;98538.63;;;10.83;100.00
9905;BME280;4991;43.566;27.820;2023-11-22T08:31:23;98525.38;;;10.68;100.00
9905;BME280;4991;43.566;27.820;2023-11-22T08:33:48;98509.78;;;10.37;100.00
9905;BME280;4991;43.566;27.820;2023-11-22T08:36:14;98487.63;;;10.08;100.00
9905;BME280;4991;43.566;27.820;2023-11-22T08:38:39;98463.66;;;9.97;100.00
9905;BME280;4991;43.566;27.820;2023-11-22T08:41:07;98497.41;;;10.09;100.00
9905;BME280;4991;43.566;27.820;2023-11-22T08:43:33;98534.59;;;10.58;100.00
9905;BME280;4991;43.566;27.820;2023-11-22T08:46:00;98543.94;;;10.66;100.00
9905;BME280;4991;43.566;27.820;2023-11-22T08:48:26;98553.28;;;10.73;100.00
9905;BME280;4991;43.566;27.820;2023-11-22T08:50:52;98526.19;;;10.46;100.00
9905;BME280;4991;43.566;27.820;2023-11-22T08:53:19;98517.28;;;10.32;100.00
9905;BME280;4991;43.566;27.820;2023-11-22T08:55:46;98514.94;;;10.39;100.00
9905;BME280;4991;43.566;27.820;2023-11-22T08:58:12;98551.47;;;10.47;100.00
9905;BME280;4991;43.566;27.820;2023-11-22T09:00:38;98526.56;;;10.31;100.00
9905;BME280;4991;43.566;27.820;2023-11-22T09:03:04;98525.56;;;10.27;100.00
9905;BME280;4991;43.566;27.820;2023-11-22T09:05:29;98488.13;;;10.10;100.00
9905;BME280;4991;43.566;27.820;2023-11-22T09:07:55;98531.13;;;10.44;100.00
9905;BME280;4991;43.566;27.820;2023-11-22T09:10:21;98517.97;;;10.37;100.00
9905;BME280;4991;43.566;27.820;2023-11-22T09:12:47;98538.31;;;10.62;100.00
9905;BME280;4991;43.566;27.820;2023-11-22T09:15:13;98525.88;;;10.48;100.00
9905;BME280;4991;43.566;27.820;2023-11-22T09:17:43;98546.22;;;10.50;100.00
9905;BME280;4991;43.566;27.820;2023-11-22T09:20:10;98541.47;;;10.56;100.00
9905;BME280;4991;43.566;27.820;2023-11-22T09:22:46;98508.13;;;10.28;100.00
9905;BME280;4991;43.566;27.820;2023-11-22T09:25:19;98524.44;;;10.50;100.00
9905;BME280;4991;43.566;27.820;2023-11-22T09:27:46;98538.25;;;10.54;100.00
9905;BME280;4991;43.566;27.820;2023-11-22T09:30:16;98529.88;;;10.50;100.00
9905;BME280;4991;43.566;27.820;2023-11-22T09:33:01;98534.53;;;10.72;100.00
9905;BME280;4991;43.566;27.820;2023-11-22T09:35:27;98517.53;;;10.44;100.00
9905;BME280;4991;43.566;27.820;2023-11-22T09:37:55;98541.09;;;10.71;100.00
9905;BME280;4991;43.566;27.820;2023-11-22T09:40:22;98506.06;;;10.56;100.00
9905;BME280;4991;43.566;27.820;2023-11-22T09:42:48;98533.59;;;10.76;100.00
9905;BME280;4991;43.566;27.820;2023-11-22T09:45:20;98546.28;;;10.81;100.00
9905;BME280;4991;43.566;27.820;2023-11-22T09:47:46;98521.59;;;10.55;100.00
9905;BME280;4991;43.566;27.820;2023-11-22T09:50:40;98552.56;;;10.90;100.00
9905;BME280;4991;43.566;27.820;2023-11-22T09:53:32;98532.94;;;10.71;100.00
9905;BME280;4991;43.566;27.820;2023-11-22T09:55:59;98536.88;;;10.87;100.00
9905;BME280;4991;43.566;27.820;2023-11-22T09:58:30;98550.78;;;10.85;100.00
9905;BME280;4991;43.566;27.820;2023-11-22T10:00:57;98498.34;;;10.49;100.00
9905;BME280;4991;43.566;27.820;2023-11-22T10:03:23;98556.25;;;10.85;100.00
9905;BME280;4991;43.566;27.820;2023-11-22T10:05:49;98554.34;;;10.86;100.00
9905;BME280;4991;43.566;27.820;2023-11-22T10:08:18;98527.53;;;10.57;100.00
9905;BME280;4991;43.566;27.820;2023-11-22T10:10:44;98555.63;;;10.66;100.00
9905;BME280;4991;43.566;27.820;2023-11-22T10:13:13;98552.63;;;10.68;100.00
9905;BME280;4991;43.566;27.820;2023-11-22T10:15:39;98553.97;;;10.57;100.00
9905;BME280;4991;43.566;27.820;2023-11-22T10:18:04;98540.34;;;10.57;100.00
9905;BME280;4991;43.566;27.820;2023-11-22T10:20:42;98546.91;;;10.56;100.00
9905;BME280;4991;43.566;27.820;2023-11-22T10:23:11;98580.94;;;10.45;100.00
9905;BME280;4991;43.566;27.820;2023-11-22T10:25:46;98579.00;;;10.45;100.00
9905;BME280;4991;43.566;27.820;2023-11-22T10:30:45;98586.50;;;10.62;100.00
9905;BME280;4991;43.566;27.820;2023-11-22T10:33:12;98574.94;;;10.34;100.00
9905;BME280;4991;43.566;27.820;2023-11-22T10:35:51;98572.63;;;10.50;100.00
9905;BME280;4991;43.566;27.820;2023-11-22T10:38:18;98585.72;;;10.61;100.00
9905;BME280;4991;43.566;27.820;2023-11-22T10:40:44;98572.72;;;10.36;100.00
9905;BME280;4991;43.566;27.820;2023-11-22T10:43:16;98591.09;;;10.53;100.00
9905;BME280;4991;43.566;27.820;2023-11-22T10:45:43;98615.41;;;10.71;100.00
9905;BME280;4991;43.566;27.820;2023-11-22T10:48:13;98573.25;;;10.47;100.00
9905;BME280;4991;43.566;27.820;2023-11-22T10:50:42;98589.00;;;10.72;100.00
9905;BME280;4991;43.566;27.820;2023-11-22T10:53:11;98607.19;;;10.85;100.00
9905;BME280;4991;43.566;27.820;2023-11-22T10:55:42;98596.84;;;10.73;100.00
9905;BME280;4991;43.566;27.820;2023-11-22T10:58:10;98597.47;;;10.70;100.00
9905;BME280;4991;43.566;27.820;2023-11-22T11:00:40;98604.28;;;10.81;100.00
9905;BME280;4991;43.566;27.820;2023-11-22T11:03:18;98582.97;;;10.83;100.00
9905;BME280;4991;43.566;27.820;2023-11-22T11:05:55;98576.06;;;10.77;100.00
9905;BME280;4991;43.566;27.820;2023-11-22T11:08:26;98577.16;;;10.76;100.00
9905;BME280;4991;43.566;27.820;2023-11-22T11:10:54;98589.13;;;10.67;100.00
9905;BME280;4991;43.566;27.820;2023-11-22T11:13:21;98569.41;;;10.61;100.00
9905;BME280;4991;43.566;27.820;2023-11-22T11:15:49;98609.66;;;10.95;100.00
9905;BME280;4991;43.566;27.820;2023-11-22T11:18:16;98609.00;;;10.89;100.00
9905;BME280;4991;43.566;27.820;2023-11-22T11:20:54;98601.44;;;10.86;100.00
9905;BME280;4991;43.566;27.820;2023-11-22T11:23:27;98623.47;;;10.76;100.00
9905;BME280;4991;43.566;27.820;2023-11-22T11:25:58;98591.41;;;10.73;100.00
9905;BME280;4991;43.566;27.820;2023-11-22T11:28:41;98627.69;;;10.82;100.00
9905;BME280;4991;43.566;27.820;2023-11-22T11:31:08;98615.53;;;10.66;100.00
9905;BME280;4991;43.566;27.820;2023-11-22T11:33:37;98647.06;;;10.81;100.00
9905;BME280;4991;43.566;27.820;2023-11-22T11:36:28;98649.59;;;10.77;100.00
9905;BME280;4991;43.566;27.820;2023-11-22T11:38:56;98656.25;;;10.71;100.00
9905;BME280;4991;43.566;27.820;2023-11-22T11:41:28;98627.75;;;10.69;100.00
9905;BME280;4991;43.566;27.820;2023-11-22T11:43:57;98655.88;;;10.78;100.00
9905;BME280;4991;43.566;27.820;2023-11-22T11:46:25;98629.41;;;10.56;100.00
9905;BME280;4991;43.566;27.820;2023-11-22T11:48:53;98642.97;;;10.70;100.00
9905;BME280;4991;43.566;27.820;2023-11-22T11:51:24;98661.13;;;10.74;100.00
9905;BME280;4991;43.566;27.820;2023-11-22T11:53:51;98674.44;;;10.76;100.00
9905;BME280;4991;43.566;27.820;2023-11-22T11:56:17;98631.97;;;10.39;100.00
9905;BME280;4991;43.566;27.820;2023-11-22T11:58:44;98645.78;;;10.43;100.00
9905;BME280;4991;43.566;27.820;2023-11-22T12:01:15;98648.94;;;10.36;100.00
9905;BME280;4991;43.566;27.820;2023-11-22T12:03:48;98685.59;;;10.52;100.00
9905;BME280;4991;43.566;27.820;2023-11-22T12:06:18;98680.16;;;10.38;100.00
9905;BME280;4991;43.566;27.820;2023-11-22T12:08:44;98680.38;;;10.28;100.00
9905;BME280;4991;43.566;27.820;2023-11-22T12:11:11;98683.59;;;10.30;100.00
9905;BME280;4991;43.566;27.820;2023-11-22T12:13:39;98684.91;;;10.33;100.00
9905;BME280;4991;43.566;27.820;2023-11-22T12:16:09;98682.31;;;10.28;100.00
9905;BME280;4991;43.566;27.820;2023-11-22T12:18:43;98676.03;;;10.00;100.00
9905;BME280;4991;43.566;27.820;2023-11-22T12:21:09;98702.34;;;10.18;100.00
9905;BME280;4991;43.566;27.820;2023-11-22T12:23:39;98686.09;;;10.00;100.00
9905;BME280;4991;43.566;27.820;2023-11-22T12:26:10;98691.94;;;10.07;100.00
9905;BME280;4991;43.566;27.820;2023-11-22T12:28:39;98713.53;;;10.17;100.00
9905;BME280;4991;43.566;27.820;2023-11-22T12:31:11;98700.34;;;10.10;100.00
9905;BME280;4991;43.566;27.820;2023-11-22T12:33:37;98676.13;;;9.95;100.00
9905;BME280;4991;43.566;27.820;2023-11-22T12:36:05;98695.28;;;9.90;100.00
9905;BME280;4991;43.566;27.820;2023-11-22T12:38:34;98714.09;;;9.87;100.00
9905;BME280;4991;43.566;27.820;2023-11-22T12:41:14;98704.44;;;9.81;100.00
9905;BME280;4991;43.566;27.820;2023-11-22T12:44:04;98706.44;;;9.89;100.00
9905;BME280;4991;43.566;27.820;2023-11-22T12:46:53;98734.50;;;10.03;100.00
9905;BME280;4991;43.566;27.820;2023-11-22T12:49:28;98719.16;;;10.07;100.00
9905;BME280;4991;43.566;27.820;2023-11-22T12:51:55;98711.00;;;10.07;100.00
9905;BME280;4991;43.566;27.820;2023-11-22T12:54:22;98701.44;;;9.96;100.00
9905;BME280;4991;43.566;27.820;2023-11-22T12:56:55;98698.50;;;9.79;100.00
9905;BME280;4991;43.566;27.820;2023-11-22T12:59:24;98707.44;;;9.66;100.00
9905;BME280;4991;43.566;27.820;2023-11-22T13:01:50;98695.16;;;9.55;100.00
9905;BME280;4991;43.566;27.820;2023-11-22T13:04:17;98700.19;;;9.61;100.00
9905;BME280;4991;43.566;27.820;2023-11-22T13:06:44;98693.44;;;9.72;100.00
9905;BME280;4991;43.566;27.820;2023-11-22T13:09:10;98698.56;;;9.60;100.00
9905;BME280;4991;43.566;27.820;2023-11-22T13:11:41;98715.16;;;9.59;100.00
9905;BME280;4991;43.566;27.820;2023-11-22T13:14:07;98754.31;;;9.76;100.00
9905;BME280;4991;43.566;27.820;2023-11-22T13:16:33;98750.78;;;9.89;100.00
9905;BME280;4991;43.566;27.820;2023-11-22T13:19:00;98739.66;;;9.72;100.00
9905;BME280;4991;43.566;27.820;2023-11-22T13:21:28;98729.97;;;9.53;100.00